sensor_id;sensor_type;location;lat;lon;timestamp;P1;P2;P0
77516;PMS7003;68414;53.946;27.634;2023-06-22T00:00:35;28.016666;27.666666;18.433332
77516;PMS7003;68414;53.946;27.634;2023-06-22T00:01:36;27.600000;26.616667;18.316668
77516;PMS7003;68414;53.946;27.634;2023-06-22T00:02:35;27.100000;26.766666;18.133333
77516;PMS7003;68414;53.946;27.634;2023-06-22T00:03:35;28.000000;26.900000;19.083334
77516;PMS7003;68414;53.946;27.634;2023-06-22T00:04:35;27.683332;25.633333;17.966667
77516;PMS7003;68414;53.946;27.634;2023-06-22T00:05:35;28.766666;27.133333;19.433332
77516;PMS7003;68414;53.946;27.634;2023-06-22T00:06:35;29.799999;28.600000;19.049999
77516;PMS7003;68414;53.946;27.634;2023-06-22T00:07:35;31.700001;28.750000;19.750000
77516;PMS7003;68414;53.946;27.634;2023-06-22T00:08:35;33.683334;30.766666;19.566668
77516;PMS7003;68414;53.946;27.634;2023-06-22T00:09:36;30.400000;29.183332;19.283333
77516;PMS7003;68414;53.946;27.634;2023-06-22T00:10:35;32.016666;30.166666;20.266666
77516;PMS7003;68414;53.946;27.634;2023-06-22T00:11:36;32.150002;30.233334;20.533333
77516;PMS7003;68414;53.946;27.634;2023-06-22T00:12:35;31.416666;29.766666;20.400000
77516;PMS7003;68414;53.946;27.634;2023-06-22T00:13:36;29.266666;28.766666;19.383333
77516;PMS7003;68414;53.946;27.634;2023-06-22T00:14:35;30.900000;29.383333;19.900000
77516;PMS7003;68414;53.946;27.634;2023-06-22T00:15:37;29.150000;27.533333;19.716667
77516;PMS7003;68414;53.946;27.634;2023-06-22T00:16:35;29.266666;26.583334;19.066668
77516;PMS7003;68414;53.946;27.634;2023-06-22T00:17:35;29.433332;28.366667;19.483334
77516;PMS7003;68414;53.946;27.634;2023-06-22T00:18:35;31.966667;29.466667;19.666666
77516;PMS7003;68414;53.946;27.634;2023-06-22T00:19:35;28.299999;27.250000;19.299999
77516;PMS7003;68414;53.946;27.634;2023-06-22T00:20:35;30.500000;28.799999;19.466667
77516;PMS7003;68414;53.946;27.634;2023-06-22T00:21:35;29.183332;27.883333;18.233334
77516;PMS7003;68414;53.946;27.634;2023-06-22T00:22:35;31.333334;30.066668;20.433332
77516;PMS7003;68414;53.946;27.634;2023-06-22T00:23:35;30.799999;29.083334;20.316668
77516;PMS7003;68414;53.946;27.634;2023-06-22T00:24:35;29.033333;27.916666;18.950001
77516;PMS7003;68414;53.946;27.634;2023-06-22T00:25:37;28.799999;27.433332;18.883333
77516;PMS7003;68414;53.946;27.634;2023-06-22T00:26:36;29.183332;27.133333;18.833334
77516;PMS7003;68414;53.946;27.634;2023-06-22T00:27:36;29.966667;27.799999;18.983334
77516;PMS7003;68414;53.946;27.634;2023-06-22T00:28:35;27.316668;25.566668;18.616667
77516;PMS7003;68414;53.946;27.634;2023-06-22T00:29:35;28.066668;27.000000;18.166666
77516;PMS7003;68414;53.946;27.634;2023-06-22T00:30:36;29.383333;27.916666;19.366667
77516;PMS7003;68414;53.946;27.634;2023-06-22T00:31:35;31.816668;30.433332;19.666666
77516;PMS7003;68414;53.946;27.634;2023-06-22T00:32:35;29.183332;28.016666;19.133333
77516;PMS7003;68414;53.946;27.634;2023-06-22T00:33:35;30.100000;28.966667;19.416666
77516;PMS7003;68414;53.946;27.634;2023-06-22T00:34:35;31.000000;29.350000;18.983334
77516;PMS7003;68414;53.946;27.634;2023-06-22T00:35:35;31.816668;29.049999;19.016666
77516;PMS7003;68414;53.946;27.634;2023-06-22T00:36:36;28.116667;26.983334;18.900000
77516;PMS7003;68414;53.946;27.634;2023-06-22T00:37:36;28.500000;25.750000;18.350000
77516;PMS7003;68414;53.946;27.634;2023-06-22T00:38:35;32.883335;30.066668;19.616667
77516;PMS7003;68414;53.946;27.634;2023-06-22T00:39:35;29.100000;27.983334;18.200001
77516;PMS7003;68414;53.946;27.634;2023-06-22T00:40:36;31.450001;29.600000;19.783333
77516;PMS7003;68414;53.946;27.634;2023-06-22T00:41:35;27.283333;26.450001;18.400000
77516;PMS7003;68414;53.946;27.634;2023-06-22T00:42:35;27.516666;26.600000;19.133333
77516;PMS7003;68414;53.946;27.634;2023-06-22T00:43:35;29.716667;28.100000;19.299999
77516;PMS7003;68414;53.946;27.634;2023-06-22T00:44:36;29.450001;27.266666;18.816668
77516;PMS7003;68414;53.946;27.634;2023-06-22T00:45:36;25.150000;24.483334;18.183332
77516;PMS7003;68414;53.946;27.634;2023-06-22T00:46:35;28.766666;27.450001;18.566668
77516;PMS7003;68414;53.946;27.634;2023-06-22T00:47:36;31.533333;29.850000;19.883333
77516;PMS7003;68414;53.946;27.634;2023-06-22T00:48:35;32.383335;29.866667;20.133333
77516;PMS7003;68414;53.946;27.634;2023-06-22T00:49:35;31.116667;29.200001;19.516666
77516;PMS7003;68414;53.946;27.634;2023-06-22T00:50:36;30.966667;28.983334;18.816668
77516;PMS7003;68414;53.946;27.634;2023-06-22T00:51:37;30.799999;28.500000;19.633333
77516;PMS7003;68414;53.946;27.634;2023-06-22T00:52:36;27.566668;25.683332;18.233334
77516;PMS7003;68414;53.946;27.634;2023-06-22T00:53:36;28.516666;26.416666;18.100000
77516;PMS7003;68414;53.946;27.634;2023-06-22T00:54:36;28.350000;27.133333;19.016666
77516;PMS7003;68414;53.946;27.634;2023-06-22T00:55:36;30.316668;28.916666;19.533333
77516;PMS7003;68414;53.946;27.634;2023-06-22T00:56:35;29.833334;27.766666;19.966667
77516;PMS7003;68414;53.946;27.634;2023-06-22T00:57:36;31.316668;30.000000;19.966667
77516;PMS7003;68414;53.946;27.634;2023-06-22T00:58:36;35.366665;32.000000;20.683332
77516;PMS7003;68414;53.946;27.634;2023-06-22T00:59:36;32.416668;30.933332;21.250000
77516;PMS7003;68414;53.946;27.634;2023-06-22T01:00:36;33.349998;31.083334;20.633333
77516;PMS7003;68414;53.946;27.634;2023-06-22T01:01:35;34.016666;31.733334;20.299999
77516;PMS7003;68414;53.946;27.634;2023-06-22T01:02:35;33.299999;30.549999;20.049999
77516;PMS7003;68414;53.946;27.634;2023-06-22T01:03:35;33.250000;31.233334;20.633333
77516;PMS7003;68414;53.946;27.634;2023-06-22T01:04:37;32.599998;29.883333;20.100000
77516;PMS7003;68414;53.946;27.634;2023-06-22T01:05:36;33.266666;30.716667;20.083334
77516;PMS7003;68414;53.946;27.634;2023-06-22T01:06:38;26.416666;26.049999;18.833334
77516;PMS7003;68414;53.946;27.634;2023-06-22T01:07:39;30.033333;28.666666;18.933332
77516;PMS7003;68414;53.946;27.634;2023-06-22T01:08:40;31.316668;29.350000;19.883333
77516;PMS7003;68414;53.946;27.634;2023-06-22T01:09:39;30.483334;29.016666;18.866667
77516;PMS7003;68414;53.946;27.634;2023-06-22T01:11:39;32.083332;29.900000;19.250000
77516;PMS7003;68414;53.946;27.634;2023-06-22T01:12:38;30.433332;29.100000;20.316668
77516;PMS7003;68414;53.946;27.634;2023-06-22T01:14:39;29.183332;28.049999;19.350000
77516;PMS7003;68414;53.946;27.634;2023-06-22T01:15:40;34.299999;30.766666;20.783333
77516;PMS7003;68414;53.946;27.634;2023-06-22T01:16:40;31.166666;29.200001;19.766666
77516;PMS7003;68414;53.946;27.634;2023-06-22T01:17:37;34.349998;30.750000;20.366667
77516;PMS7003;68414;53.946;27.634;2023-06-22T01:18:37;33.750000;31.783333;21.233334
77516;PMS7003;68414;53.946;27.634;2023-06-22T01:19:39;30.500000;28.933332;19.799999
77516;PMS7003;68414;53.946;27.634;2023-06-22T01:20:36;30.799999;29.466667;19.883333
77516;PMS7003;68414;53.946;27.634;2023-06-22T01:21:36;32.816666;30.933332;20.983334
77516;PMS7003;68414;53.946;27.634;2023-06-22T01:22:45;32.766666;30.483334;20.633333
77516;PMS7003;68414;53.946;27.634;2023-06-22T01:26:53;33.433334;30.733334;20.566668
77516;PMS7003;68414;53.946;27.634;2023-06-22T01:29:36;36.883335;32.700001;21.366667
77516;PMS7003;68414;53.946;27.634;2023-06-22T01:30:36;34.950001;31.116667;21.049999
77516;PMS7003;68414;53.946;27.634;2023-06-22T01:31:35;36.383335;32.633335;20.950001
77516;PMS7003;68414;53.946;27.634;2023-06-22T01:32:37;30.250000;28.416666;19.583334
77516;PMS7003;68414;53.946;27.634;2023-06-22T01:33:39;31.333334;29.966667;20.766666
77516;PMS7003;68414;53.946;27.634;2023-06-22T01:34:36;33.383335;30.799999;20.033333
77516;PMS7003;68414;53.946;27.634;2023-06-22T01:35:36;33.683334;31.016666;19.833334
77516;PMS7003;68414;53.946;27.634;2023-06-22T01:36:37;28.466667;26.783333;19.183332
77516;PMS7003;68414;53.946;27.634;2023-06-22T01:37:37;33.616665;30.283333;20.733334
77516;PMS7003;68414;53.946;27.634;2023-06-22T01:38:37;34.183334;31.566668;21.433332
77516;PMS7003;68414;53.946;27.634;2023-06-22T01:39:36;35.316666;31.799999;21.150000
77516;PMS7003;68414;53.946;27.634;2023-06-22T01:40:36;35.533333;32.616665;21.366667
77516;PMS7003;68414;53.946;27.634;2023-06-22T01:41:37;33.716667;30.816668;20.383333
77516;PMS7003;68414;53.946;27.634;2023-06-22T01:42:37;30.150000;29.283333;19.883333
77516;PMS7003;68414;53.946;27.634;2023-06-22T01:43:36;33.549999;30.750000;20.100000
77516;PMS7003;68414;53.946;27.634;2023-06-22T01:44:36;31.816668;30.233334;19.883333
77516;PMS7003;68414;53.946;27.634;2023-06-22T01:45:35;30.299999;28.933332;19.516666
77516;PMS7003;68414;53.946;27.634;2023-06-22T01:46:37;28.900000;28.650000;20.600000
77516;PMS7003;68414;53.946;27.634;2023-06-22T01:47:35;30.733334;29.350000;19.549999
77516;PMS7003;68414;53.946;27.634;2023-06-22T01:48:35;31.733334;29.966667;19.916666
77516;PMS7003;68414;53.946;27.634;2023-06-22T01:49:36;33.416668;30.116667;20.733334
77516;PMS7003;68414;53.946;27.634;2023-06-22T01:50:35;31.166666;28.233334;19.600000
77516;PMS7003;68414;53.946;27.634;2023-06-22T01:51:35;32.333332;30.100000;19.700001
77516;PMS7003;68414;53.946;27.634;2023-06-22T01:52:35;30.299999;28.983334;20.316668
77516;PMS7003;68414;53.946;27.634;2023-06-22T01:53:35;30.916666;28.533333;20.033333
77516;PMS7003;68414;53.946;27.634;2023-06-22T01:54:37;32.283333;29.549999;19.816668
77516;PMS7003;68414;53.946;27.634;2023-06-22T01:55:35;36.566666;32.466667;21.583334
77516;PMS7003;68414;53.946;27.634;2023-06-22T01:56:36;34.233334;31.366667;21.216667
77516;PMS7003;68414;53.946;27.634;2023-06-22T01:57:35;33.533333;30.966667;21.216667
77516;PMS7003;68414;53.946;27.634;2023-06-22T01:58:50;32.066666;29.750000;20.583334
77516;PMS7003;68414;53.946;27.634;2023-06-22T01:59:39;34.799999;30.833334;20.066668
77516;PMS7003;68414;53.946;27.634;2023-06-22T02:00:38;31.600000;30.116667;19.983334
77516;PMS7003;68414;53.946;27.634;2023-06-22T02:01:49;33.333332;31.466667;20.866667
77516;PMS7003;68414;53.946;27.634;2023-06-22T02:05:38;35.216667;32.549999;20.683332
77516;PMS7003;68414;53.946;27.634;2023-06-22T02:06:37;35.933334;31.883333;21.750000
77516;PMS7003;68414;53.946;27.634;2023-06-22T02:07:41;36.033333;32.383335;21.350000
77516;PMS7003;68414;53.946;27.634;2023-06-22T02:09:37;37.033333;33.200001;21.916666
77516;PMS7003;68414;53.946;27.634;2023-06-22T02:10:37;34.133335;31.566668;21.466667
77516;PMS7003;68414;53.946;27.634;2023-06-22T02:11:37;36.766666;33.083332;22.549999
77516;PMS7003;68414;53.946;27.634;2023-06-22T02:12:36;38.250000;33.799999;22.166666
77516;PMS7003;68414;53.946;27.634;2023-06-22T02:13:36;37.849998;33.433334;22.166666
77516;PMS7003;68414;53.946;27.634;2023-06-22T02:14:36;38.816666;34.250000;22.616667
77516;PMS7003;68414;53.946;27.634;2023-06-22T02:15:36;33.750000;30.850000;20.583334
77516;PMS7003;68414;53.946;27.634;2023-06-22T02:16:36;36.716667;33.116665;22.566668
77516;PMS7003;68414;53.946;27.634;2023-06-22T02:17:36;36.000000;32.833332;22.116667
77516;PMS7003;68414;53.946;27.634;2023-06-22T02:18:35;36.549999;32.049999;21.750000
77516;PMS7003;68414;53.946;27.634;2023-06-22T02:19:36;37.083332;33.183334;22.433332
77516;PMS7003;68414;53.946;27.634;2023-06-22T02:20:37;37.133335;33.733334;22.633333
77516;PMS7003;68414;53.946;27.634;2023-06-22T02:21:35;39.033333;33.150002;22.416666
77516;PMS7003;68414;53.946;27.634;2023-06-22T02:22:35;39.916668;33.966667;22.600000
77516;PMS7003;68414;53.946;27.634;2023-06-22T02:23:35;37.783333;33.833332;22.566668
77516;PMS7003;68414;53.946;27.634;2023-06-22T02:24:35;39.283333;34.316666;22.650000
77516;PMS7003;68414;53.946;27.634;2023-06-22T02:25:36;35.466667;32.333332;21.816668
77516;PMS7003;68414;53.946;27.634;2023-06-22T02:26:36;34.650002;31.950001;20.700001
77516;PMS7003;68414;53.946;27.634;2023-06-22T02:27:35;38.566666;34.216667;22.333334
77516;PMS7003;68414;53.946;27.634;2023-06-22T02:28:35;36.366665;33.099998;22.000000
77516;PMS7003;68414;53.946;27.634;2023-06-22T02:29:36;35.633335;32.283333;21.883333
77516;PMS7003;68414;53.946;27.634;2023-06-22T02:30:35;37.299999;32.733334;22.483334
77516;PMS7003;68414;53.946;27.634;2023-06-22T02:31:35;37.983334;33.066666;22.133333
77516;PMS7003;68414;53.946;27.634;2023-06-22T02:32:35;35.849998;32.566666;21.816668
77516;PMS7003;68414;53.946;27.634;2023-06-22T02:33:35;36.366665;32.416668;22.000000
77516;PMS7003;68414;53.946;27.634;2023-06-22T02:34:35;35.366665;31.766666;21.616667
77516;PMS7003;68414;53.946;27.634;2023-06-22T02:35:35;39.200001;33.483334;22.166666
77516;PMS7003;68414;53.946;27.634;2023-06-22T02:36:35;35.450001;32.133335;21.866667
77516;PMS7003;68414;53.946;27.634;2023-06-22T02:37:37;35.099998;31.250000;21.900000
77516;PMS7003;68414;53.946;27.634;2023-06-22T02:38:35;36.116665;31.283333;21.166666
77516;PMS7003;68414;53.946;27.634;2023-06-22T02:39:35;36.000000;32.133335;21.500000
77516;PMS7003;68414;53.946;27.634;2023-06-22T02:40:35;37.116665;32.983334;22.316668
77516;PMS7003;68414;53.946;27.634;2023-06-22T02:41:35;38.066666;32.683334;21.250000
77516;PMS7003;68414;53.946;27.634;2023-06-22T02:42:40;36.733334;32.000000;21.350000
77516;PMS7003;68414;53.946;27.634;2023-06-22T02:43:35;38.000000;33.150002;21.950001
77516;PMS7003;68414;53.946;27.634;2023-06-22T02:44:36;36.366665;32.766666;22.316668
77516;PMS7003;68414;53.946;27.634;2023-06-22T02:45:35;34.866665;31.533333;21.850000
77516;PMS7003;68414;53.946;27.634;2023-06-22T02:46:35;35.349998;32.299999;21.416666
77516;PMS7003;68414;53.946;27.634;2023-06-22T02:47:35;37.500000;33.166668;21.883333
77516;PMS7003;68414;53.946;27.634;2023-06-22T02:48:35;37.433334;32.483334;21.750000
77516;PMS7003;68414;53.946;27.634;2023-06-22T02:49:35;39.266666;33.599998;22.216667
77516;PMS7003;68414;53.946;27.634;2023-06-22T02:50:35;41.283333;34.933334;22.816668
77516;PMS7003;68414;53.946;27.634;2023-06-22T02:51:37;36.333332;33.049999;22.633333
77516;PMS7003;68414;53.946;27.634;2023-06-22T02:52:36;40.766666;34.216667;22.549999
77516;PMS7003;68414;53.946;27.634;2023-06-22T02:53:35;39.316666;34.716667;22.633333
77516;PMS7003;68414;53.946;27.634;2023-06-22T02:54:35;35.450001;32.616665;22.049999
77516;PMS7003;68414;53.946;27.634;2023-06-22T02:55:36;37.016666;33.116665;21.600000
77516;PMS7003;68414;53.946;27.634;2023-06-22T02:56:35;36.866665;33.200001;21.816668
77516;PMS7003;68414;53.946;27.634;2023-06-22T02:57:35;37.533333;33.683334;22.266666
77516;PMS7003;68414;53.946;27.634;2023-06-22T02:58:35;35.583332;31.950001;20.833334
77516;PMS7003;68414;53.946;27.634;2023-06-22T02:59:36;39.283333;33.950001;22.483334
77516;PMS7003;68414;53.946;27.634;2023-06-22T03:00:35;35.683334;32.450001;21.466667
77516;PMS7003;68414;53.946;27.634;2023-06-22T03:01:35;35.549999;32.650002;21.866667
77516;PMS7003;68414;53.946;27.634;2023-06-22T03:02:35;36.833332;32.716667;22.183332
77516;PMS7003;68414;53.946;27.634;2023-06-22T03:03:35;36.750000;32.650002;22.283333
77516;PMS7003;68414;53.946;27.634;2023-06-22T03:04:35;37.583332;33.450001;22.316668
77516;PMS7003;68414;53.946;27.634;2023-06-22T03:05:35;36.366665;32.533333;22.316668
77516;PMS7003;68414;53.946;27.634;2023-06-22T03:06:36;38.666668;33.799999;22.766666
77516;PMS7003;68414;53.946;27.634;2023-06-22T03:07:35;39.549999;33.849998;22.049999
77516;PMS7003;68414;53.946;27.634;2023-06-22T03:08:35;35.216667;32.016666;21.900000
77516;PMS7003;68414;53.946;27.634;2023-06-22T03:09:35;36.349998;32.683334;21.750000
77516;PMS7003;68414;53.946;27.634;2023-06-22T03:10:35;37.533333;33.783333;22.566668
77516;PMS7003;68414;53.946;27.634;2023-06-22T03:11:35;36.599998;32.833332;21.783333
77516;PMS7003;68414;53.946;27.634;2023-06-22T03:12:37;36.466667;32.750000;22.216667
77516;PMS7003;68414;53.946;27.634;2023-06-22T03:13:35;41.099998;35.016666;22.966667
77516;PMS7003;68414;53.946;27.634;2023-06-22T03:14:35;37.599998;33.450001;22.483334
77516;PMS7003;68414;53.946;27.634;2023-06-22T03:15:35;37.150002;32.966667;22.116667
77516;PMS7003;68414;53.946;27.634;2023-06-22T03:16:35;38.833332;34.000000;22.016666
77516;PMS7003;68414;53.946;27.634;2023-06-22T03:17:36;35.833332;32.700001;21.633333
77516;PMS7003;68414;53.946;27.634;2023-06-22T03:18:35;38.733334;34.083332;22.233334
77516;PMS7003;68414;53.946;27.634;2023-06-22T03:19:35;35.116665;32.349998;21.183332
77516;PMS7003;68414;53.946;27.634;2023-06-22T03:20:35;35.766666;32.716667;21.799999
77516;PMS7003;68414;53.946;27.634;2023-06-22T03:21:37;37.716667;33.333332;22.200001
77516;PMS7003;68414;53.946;27.634;2023-06-22T03:22:37;38.833332;33.900002;22.333334
77516;PMS7003;68414;53.946;27.634;2023-06-22T03:23:36;36.783333;32.983334;22.450001
77516;PMS7003;68414;53.946;27.634;2023-06-22T03:24:35;37.833332;33.500000;22.383333
77516;PMS7003;68414;53.946;27.634;2023-06-22T03:25:35;37.933334;33.933334;22.466667
77516;PMS7003;68414;53.946;27.634;2023-06-22T03:26:35;39.200001;34.200001;22.883333
77516;PMS7003;68414;53.946;27.634;2023-06-22T03:27:37;38.966667;34.400002;22.933332
77516;PMS7003;68414;53.946;27.634;2023-06-22T03:28:35;41.416668;35.883335;22.916666
77516;PMS7003;68414;53.946;27.634;2023-06-22T03:29:35;39.299999;34.733334;22.966667
77516;PMS7003;68414;53.946;27.634;2023-06-22T03:30:35;39.250000;34.466667;22.916666
77516;PMS7003;68414;53.946;27.634;2023-06-22T03:31:35;41.099998;35.433334;22.483334
77516;PMS7003;68414;53.946;27.634;2023-06-22T03:32:35;40.316666;34.716667;22.983334
77516;PMS7003;68414;53.946;27.634;2023-06-22T03:33:35;38.133335;33.633335;22.733334
77516;PMS7003;68414;53.946;27.634;2023-06-22T03:34:36;40.583332;34.433334;22.466667
77516;PMS7003;68414;53.946;27.634;2023-06-22T03:35:35;38.616665;34.483334;23.183332
77516;PMS7003;68414;53.946;27.634;2023-06-22T03:36:35;42.133335;36.466667;23.666666
77516;PMS7003;68414;53.946;27.634;2023-06-22T03:37:35;43.066666;36.866665;24.016666
77516;PMS7003;68414;53.946;27.634;2023-06-22T03:38:35;41.150002;35.316666;22.900000
77516;PMS7003;68414;53.946;27.634;2023-06-22T03:39:35;41.599998;35.366665;23.433332
77516;PMS7003;68414;53.946;27.634;2023-06-22T03:40:35;42.683334;35.566666;22.533333
77516;PMS7003;68414;53.946;27.634;2023-06-22T03:41:35;36.866665;32.966667;22.549999
77516;PMS7003;68414;53.946;27.634;2023-06-22T03:42:35;40.049999;34.650002;23.383333
77516;PMS7003;68414;53.946;27.634;2023-06-22T03:43:35;39.983334;34.283333;22.966667
77516;PMS7003;68414;53.946;27.634;2023-06-22T03:44:35;39.549999;34.083332;22.683332
77516;PMS7003;68414;53.946;27.634;2023-06-22T03:45:35;43.183334;36.316666;23.299999
77516;PMS7003;68414;53.946;27.634;2023-06-22T03:46:35;42.633335;36.349998;23.266666
77516;PMS7003;68414;53.946;27.634;2023-06-22T03:47:35;42.466667;36.266666;23.616667
77516;PMS7003;68414;53.946;27.634;2023-06-22T03:48:35;40.466667;35.500000;23.216667
77516;PMS7003;68414;53.946;27.634;2023-06-22T03:49:36;39.250000;34.650002;22.666666
77516;PMS7003;68414;53.946;27.634;2023-06-22T03:50:35;39.166668;34.166668;22.516666
77516;PMS7003;68414;53.946;27.634;2023-06-22T03:51:35;41.799999;35.950001;23.266666
77516;PMS7003;68414;53.946;27.634;2023-06-22T03:52:35;38.250000;34.500000;22.616667
77516;PMS7003;68414;53.946;27.634;2023-06-22T03:53:35;37.633335;33.583332;22.216667
77516;PMS7003;68414;53.946;27.634;2023-06-22T03:54:35;40.816666;34.983334;22.933332
77516;PMS7003;68414;53.946;27.634;2023-06-22T03:55:35;38.849998;34.233334;22.450001
77516;PMS7003;68414;53.946;27.634;2023-06-22T03:56:35;39.299999;34.583332;23.133333
77516;PMS7003;68414;53.946;27.634;2023-06-22T03:57:35;41.366665;35.349998;22.900000
77516;PMS7003;68414;53.946;27.634;2023-06-22T03:58:35;39.299999;33.966667;22.183332
77516;PMS7003;68414;53.946;27.634;2023-06-22T03:59:35;40.583332;34.700001;22.266666
77516;PMS7003;68414;53.946;27.634;2023-06-22T04:00:35;37.700001;33.266666;22.500000
77516;PMS7003;68414;53.946;27.634;2023-06-22T04:01:35;41.866665;35.549999;23.216667
77516;PMS7003;68414;53.946;27.634;2023-06-22T04:02:35;39.450001;34.483334;22.633333
77516;PMS7003;68414;53.946;27.634;2023-06-22T04:03:35;44.666668;37.683334;24.533333
77516;PMS7003;68414;53.946;27.634;2023-06-22T04:04:35;45.150002;37.983334;24.716667
77516;PMS7003;68414;53.946;27.634;2023-06-22T04:05:35;42.483334;36.750000;23.983334
77516;PMS7003;68414;53.946;27.634;2023-06-22T04:06:35;43.049999;36.250000;23.733334
77516;PMS7003;68414;53.946;27.634;2023-06-22T04:07:35;43.733334;36.799999;23.500000
77516;PMS7003;68414;53.946;27.634;2023-06-22T04:08:35;43.750000;36.500000;22.850000
77516;PMS7003;68414;53.946;27.634;2023-06-22T04:09:35;43.150002;36.349998;23.450001
77516;PMS7003;68414;53.946;27.634;2023-06-22T04:10:35;45.599998;38.700001;24.600000
77516;PMS7003;68414;53.946;27.634;2023-06-22T04:11:35;43.900002;37.383335;24.150000
77516;PMS7003;68414;53.946;27.634;2023-06-22T04:12:35;45.750000;38.450001;24.833334
77516;PMS7003;68414;53.946;27.634;2023-06-22T04:13:35;43.150002;36.883335;24.533333
77516;PMS7003;68414;53.946;27.634;2023-06-22T04:14:35;44.116665;37.016666;24.116667
77516;PMS7003;68414;53.946;27.634;2023-06-22T04:15:35;43.450001;37.549999;23.833334
77516;PMS7003;68414;53.946;27.634;2023-06-22T04:16:35;43.900002;37.200001;23.416666
77516;PMS7003;68414;53.946;27.634;2023-06-22T04:17:35;45.500000;38.549999;25.049999
77516;PMS7003;68414;53.946;27.634;2023-06-22T04:18:35;46.266666;38.966667;25.150000
77516;PMS7003;68414;53.946;27.634;2023-06-22T04:19:35;45.450001;38.183334;24.650000
77516;PMS7003;68414;53.946;27.634;2023-06-22T04:20:35;44.000000;37.033333;25.116667
77516;PMS7003;68414;53.946;27.634;2023-06-22T04:21:35;43.900002;37.516666;24.650000
77516;PMS7003;68414;53.946;27.634;2023-06-22T04:22:35;45.200001;37.933334;24.583334
77516;PMS7003;68414;53.946;27.634;2023-06-22T04:23:35;44.833332;37.950001;24.650000
77516;PMS7003;68414;53.946;27.634;2023-06-22T04:24:35;47.016666;38.633335;25.299999
77516;PMS7003;68414;53.946;27.634;2023-06-22T04:25:35;45.400002;37.733334;24.166666
77516;PMS7003;68414;53.946;27.634;2023-06-22T04:26:35;44.400002;37.633335;24.250000
77516;PMS7003;68414;53.946;27.634;2023-06-22T04:27:35;45.616665;38.183334;25.083334
77516;PMS7003;68414;53.946;27.634;2023-06-22T04:28:35;44.150002;37.450001;24.733334
77516;PMS7003;68414;53.946;27.634;2023-06-22T04:29:35;42.700001;36.750000;23.966667
77516;PMS7003;68414;53.946;27.634;2023-06-22T04:30:35;44.200001;37.716667;23.883333
77516;PMS7003;68414;53.946;27.634;2023-06-22T04:31:35;43.683334;37.383335;24.733334
77516;PMS7003;68414;53.946;27.634;2023-06-22T04:32:35;42.799999;36.816666;23.816668
77516;PMS7003;68414;53.946;27.634;2023-06-22T04:33:35;43.416668;36.500000;23.750000
77516;PMS7003;68414;53.946;27.634;2023-06-22T04:34:35;42.416668;36.150002;23.466667
77516;PMS7003;68414;53.946;27.634;2023-06-22T04:35:35;41.333332;35.150002;22.833334
77516;PMS7003;68414;53.946;27.634;2023-06-22T04:36:37;40.583332;35.183334;22.933332
77516;PMS7003;68414;53.946;27.634;2023-06-22T04:37:35;41.566666;36.116665;23.683332
77516;PMS7003;68414;53.946;27.634;2023-06-22T04:38:35;40.950001;35.483334;23.233334
77516;PMS7003;68414;53.946;27.634;2023-06-22T04:39:35;38.533333;34.183334;22.549999
77516;PMS7003;68414;53.946;27.634;2023-06-22T04:40:35;41.599998;35.799999;22.666666
77516;PMS7003;68414;53.946;27.634;2023-06-22T04:42:38;40.650002;34.849998;22.566668
77516;PMS7003;68414;53.946;27.634;2023-06-22T04:43:35;40.250000;34.333332;22.283333
77516;PMS7003;68414;53.946;27.634;2023-06-22T04:44:35;36.266666;32.766666;21.966667
77516;PMS7003;68414;53.946;27.634;2023-06-22T04:45:35;40.616665;34.683334;22.250000
77516;PMS7003;68414;53.946;27.634;2023-06-22T04:46:35;41.716667;35.783333;22.633333
77516;PMS7003;68414;53.946;27.634;2023-06-22T04:47:35;38.166668;33.933334;23.133333
77516;PMS7003;68414;53.946;27.634;2023-06-22T04:48:35;42.716667;37.049999;24.750000
77516;PMS7003;68414;53.946;27.634;2023-06-22T04:49:36;49.400002;41.316666;27.650000
77516;PMS7003;68414;53.946;27.634;2023-06-22T04:50:37;40.200001;34.500000;22.333334
77516;PMS7003;68414;53.946;27.634;2023-06-22T04:51:42;37.333332;32.233334;21.900000
77516;PMS7003;68414;53.946;27.634;2023-06-22T04:52:35;35.216667;31.250000;20.833334
77516;PMS7003;68414;53.946;27.634;2023-06-22T04:53:35;36.616665;32.799999;21.366667
77516;PMS7003;68414;53.946;27.634;2023-06-22T04:54:37;34.200001;31.850000;20.583334
77516;PMS7003;68414;53.946;27.634;2023-06-22T04:55:35;36.549999;32.633335;21.216667
77516;PMS7003;68414;53.946;27.634;2023-06-22T04:56:35;36.083332;32.750000;21.083334